Weather observations for the past three days for
Rochester Fulton County Airport
Imperial (Metric)
Date Time (edt) Wind (mph) Vis. (mi.) Weather Sky Cond. Temperature (ºF) Relative Humidity Wind Chill (°F) Heat Index (°F) Pressure Precipitation (in)
Air Dwpt 6 hour altimeter (in) sea level (mb) 1 hr 3 hr 6 hr
Max. Min.
03 01:55 S 8 10.00 Fair CLR 80.6 75.2 84% 86 29.97 0.0
03 01:35 S 8 10.00 Fair CLR 80.6 75.2 84% 86 29.96 0.0
03 01:15 Vrbl 7 10.00 Fair CLR 80.6 75.2 84% 86 29.96 0.0
03 00:55 S 8 10.00 Fair CLR 80.6 77 89% 87 29.96 0.0
03 00:35 S 7 10.00 Fair CLR 80.6 77 89% 87 29.96 0.0
03 00:15 S 7 10.00 Fair CLR 80.6 77 89% 87 29.96 0.0
02 23:55 S 6 10.00 Fair CLR 80.6 77 89% 87 29.96 0.0
02 23:35 S 5 10.00 Fair CLR 80.6 77 89% 87 29.97 0.0
02 23:15 S 5 10.00 Fair CLR 82.4 77 84% 91 29.97 0.0
02 22:55 S 5 10.00 Fair CLR 82.4 77 84% 91 29.97 0.0
02 22:35 S 6 10.00 Fair CLR 82.4 77 84% 91 29.97 0.0
02 22:15 S 6 10.00 Fair CLR 82.4 77 84% 91 29.97 0.0
02 21:55 S 5 10.00 Fair CLR 82.4 77 84% 91 29.97 0.0
02 21:35 S 6 10.00 Fair CLR 84.2 77 79% 94 29.97 0.0
02 21:15 S 7 10.00 Fair CLR 84.2 78.8 84% 96 29.96 0.0
02 20:55 S 7 10.00 Fair CLR 84.2 78.8 84% 96 29.95 0.0
02 20:35 S 7 10.00 Fair CLR 86 78.8 79% 99 29.95 0.0
02 20:15 S 7 10.00 Fair CLR 86 78.8 79% 99 29.95 0.0
02 19:55 S 6 10.00 Fair CLR 86 78.8 79% 99 29.95 0.0
02 19:35 S 7 10.00 Fair CLR 87.8 78.8 75% 102 29.95 0.0
02 19:15 S 6 10.00 Partly Cloudy FEW085 SCT110 87.8 78.8 75% 102 29.96 0.0
02 18:55 S 7 10.00 Fair CLR 87.8 78.8 75% 102 29.96 0.0
02 18:35 S 6 10.00 Fair CLR 89.6 78.8 71% 105 29.96 0.0
02 18:15 S 8 10.00 Fair CLR 91.4 78.8 67% 108 29.96 0.0
02 17:55 S 7 10.00 Fair CLR 91.4 78.8 67% 108 29.96 0.0
02 17:35 S 10 10.00 Fair CLR 91.4 77 63% 105 29.96 0.0
02 17:15 S 10 10.00 Fair CLR 91.4 77 63% 105 29.96 0.0
02 16:55 SW 9 10.00 Fair CLR 91.4 77 63% 105 29.96 0.0
02 16:35 SW 9 10.00 Fair CLR 91.4 77 63% 105 29.97 0.0
02 16:15 SW 10 10.00 Fair CLR 91.4 77 63% 105 29.97 0.0
02 15:55 S 9 G 16 10.00 Fair CLR 91.4 77 63% 105 29.98 0.0
02 15:35 SW 10 10.00 Fair CLR 91.4 77 63% 105 29.98 0.0
02 15:15 SW 9 9.00 Fair CLR 91.4 77 63% 105 29.99 0.0
02 14:55 SW 8 G 15 10.00 Fair CLR 91.4 77 63% 105 29.99 0.0
02 14:35 S 12 10.00 Fair CLR 91.4 77 63% 105 29.99 0.0
02 14:15 SW 8 10.00 Fair CLR 91.4 78.8 67% 108 29.99 0.0
02 13:55 Vrbl 6 G 14 10.00 Fair CLR 89.6 78.8 71% 105 30 0.0
02 13:35 S 9 G 15 10.00 Fair CLR 89.6 77 67% 103 30 0.0
02 13:15 S 8 10.00 Fair CLR 89.6 77 67% 103 30.01 0.0
02 12:55 S 8 10.00 Fair CLR 89.6 77 67% 103 30.01 0.0
02 12:35 SW 7 10.00 Fair CLR 87.8 77 70% 100 30.01 0.0
02 12:15 S 8 10.00 Fair CLR 87.8 75.2 66% 98 30.02 0.0
02 11:55 SW 5 G 12 10.00 Fair CLR 87.8 77 70% 100 30.02 0.0
02 11:35 Vrbl 7 10.00 Fair CLR 86 75.2 70% 95 30.02 0.0
02 11:15 SW 8 10.00 Fair CLR 86 77 75% 97 30.02 0.0
02 10:55 SW 7 10.00 Fair CLR 84.2 75.2 74% 92 30.02 0.0
02 10:35 SW 9 10.00 Fair CLR 84.2 75.2 74% 92 30.02 0.0
02 10:15 SW 8 10.00 Fair CLR 82.4 75.2 79% 89 30.02 0.0
02 09:55 SW 7 10.00 Fair CLR 80.6 75.2 84% 86 30.02 0.0
02 09:35 SW 9 10.00 Fair CLR 80.6 73.4 79% 85 30.02 0.0
02 09:15 S 7 10.00 Fair CLR 78.8 73.4 84% 82 30.03 0.0
02 08:55 Vrbl 5 10.00 Fair CLR 78.8 73.4 84% 82 30.03 0.0
02 08:35 SW 5 10.00 Fair CLR 77 73.4 89% 78 30.03 0.0
02 08:15 Calm 10.00 Fair CLR 77 73.4 89% 78 30.04 0.0
02 07:55 SW 6 10.00 Fair CLR 75.2 71.6 89% 75 30.03 0.0
02 07:35 SW 6 10.00 Fair CLR 75.2 71.6 89% 75 30.02 0.0
02 07:15 S 6 10.00 Fair CLR 75.2 73.4 94% 74 30.02 0.0
02 06:55 Calm 10.00 Fair CLR 75.2 73.4 94% 74 30.02 0.0
02 06:35 SW 3 10.00 Fair CLR 75.2 73.4 94% 74 30.02 0.0
02 06:15 SW 3 10.00 Fair CLR 75.2 73.4 94% 74 30.01 0.0
02 05:55 Calm 10.00 Fair CLR 75.2 73.4 94% 74 30.01 0.0
02 05:35 Calm 10.00 Fair CLR 75.2 73.4 94% 74 30 0.0
02 05:15 Calm 10.00 Fair CLR 77 73.4 89% 78 30 0.0
02 04:55 SW 3 10.00 Fair CLR 77 73.4 89% 78 30 0.0
02 04:35 SW 3 10.00 Fair CLR 75.2 73.4 94% 74 30 0.0
02 04:15 SW 3 10.00 Fair CLR 75.2 73.4 94% 74 30.01 0.0
02 03:55 SW 3 10.00 Fair CLR 77 75.2 94% 78 30 0.0
02 03:35 SW 6 10.00 Fair CLR 77 75.2 94% 78 30 0.0
02 03:15 S 6 10.00 Fair CLR 77 75.2 94% 78 30 0.0
02 02:55 S 7 10.00 Fair CLR 78.8 75.2 89% 82 30 0.0
02 02:35 S 6 10.00 Fair CLR 78.8 75.2 89% 82 30 0.0
02 02:15 SW 5 10.00 Fair CLR 77 75.2 94% 78 30 0.0
02 01:55 SW 5 10.00 Fair CLR 77 75.2 94% 78 30 0.0
02 01:35 Calm 10.00 Fair CLR 78.8 75.2 89% 82 30 0.0
02 01:15 SW 5 10.00 Fair CLR 78.8 75.2 89% 82 30 0.0
02 00:55 Calm 10.00 Partly Cloudy SCT080 78.8 75.2 89% 82 30 0.0
02 00:35 SW 3 10.00 Overcast OVC080 78.8 77 94% 83 30 0.0
02 00:15 S 5 10.00 Mostly Cloudy BKN080 78.8 77 94% 83 30 0.0
01 23:55 S 6 10.00 Mostly Cloudy BKN080 80.6 77 89% 87 30 0.0
01 23:35 SW 6 10.00 Partly Cloudy SCT080 80.6 77 89% 87 30 0.0
01 23:15 S 7 10.00 Partly Cloudy SCT075 SCT085 82.4 77 84% 91 30 0.0
01 22:55 S 5 10.00 Mostly Cloudy BKN075 BKN090 82.4 77 84% 91 30 0.0
01 22:35 S 5 10.00 Mostly Cloudy BKN080 BKN090 82.4 77 84% 91 30 0.0
01 22:15 Calm 10.00 Mostly Cloudy SCT080 BKN090 82.4 77 84% 91 30 0.0
01 21:55 S 3 10.00 Partly Cloudy SCT085 82.4 78.8 89% 92 30 0.0
01 21:35 S 5 9.00 Partly Cloudy SCT085 82.4 77 84% 91 30 0.0
01 21:15 S 5 10.00 Fair CLR 84.2 78.8 84% 96 29.99 0.0
01 20:55 S 3 10.00 A Few Clouds FEW110 84.2 78.8 84% 96 29.99 0.0
01 20:35 Calm 10.00 Partly Cloudy SCT110 84.2 78.8 84% 96 29.99 0.0
01 20:15 S 6 10.00 Mostly Cloudy BKN100 86 78.8 79% 99 29.99 0.0
01 19:55 S 5 10.00 Fair CLR 86 78.8 79% 99 29.99 0.0
01 19:35 S 3 10.00 Fair CLR 87.8 78.8 75% 102 29.99 0.0
01 19:15 S 6 10.00 Fair CLR 87.8 80.6 79% 105 29.99 0.0
01 18:55 S 5 10.00 Fair CLR 89.6 78.8 71% 105 29.99 0.0
01 18:35 S 5 10.00 Fair CLR 89.6 78.8 71% 105 29.99 0.0
01 18:15 Vrbl 7 10.00 Fair CLR 89.6 78.8 71% 105 29.99 0.0
01 17:55 SW 6 10.00 Fair CLR 89.6 78.8 71% 105 29.99 0.0
01 17:35 S 5 10.00 Fair CLR 91.4 78.8 67% 108 29.98 0.0
01 17:15 S 5 10.00 Fair CLR 89.6 78.8 71% 105 29.99 0.0
01 16:55 S 5 10.00 Fair CLR 89.6 78.8 71% 105 29.99 0.0
01 16:35 S 6 10.00 Fair CLR 89.6 78.8 71% 105 30 0.0
01 16:15 SW 7 10.00 Fair CLR 89.6 78.8 71% 105 30 0.0
01 15:55 S 7 10.00 Fair CLR 87.8 78.8 75% 102 30 0.0
01 15:35 SW 9 10.00 Fair CLR 89.6 77 67% 103 30 0.0
01 15:15 Vrbl 7 10.00 Fair CLR 89.6 78.8 71% 105 30.01 0.0
01 14:55 SW 8 10.00 A Few Clouds FEW110 87.8 77 70% 100 30.01 0.0
01 14:35 SW 9 G 15 10.00 Fair CLR 87.8 77 70% 100 30.01 0.0
01 14:15 SW 8 10.00 Fair CLR 87.8 77 70% 100 30.01 0.0
01 13:55 S 9 10.00 Fair CLR 86 77 75% 97 30.01 0.0
01 13:35 SW 8 10.00 Fair CLR 87.8 77 70% 100 30.01 0.0
01 13:15 SW 12 10.00 Fair CLR 86 77 75% 97 30.01 0.0
01 12:55 SW 9 G 15 10.00 Fair CLR 86 77 75% 97 30.02 0.0
01 12:35 Vrbl 6 G 14 10.00 Fair CLR 84.2 75.2 74% 92 30.02 0.0
01 12:15 SW 9 10.00 Fair CLR 84.2 75.2 74% 92 30.02 0.0
01 11:55 W 9 10.00 Fair CLR 84.2 75.2 74% 92 30.02 0.0
01 11:35 SW 9 10.00 Fair CLR 82.4 75.2 79% 89 30.02 0.0
01 11:15 SW 8 10.00 Fair CLR 80.6 73.4 79% 85 30.02 0.0
01 10:55 SW 7 10.00 Fair CLR 80.6 73.4 79% 85 30.02 0.0
01 10:35 SW 6 10.00 Fair CLR 77 73.4 89% 78 30.02 0.0
01 10:15 SW 5 10.00 Thunderstorm in Vicinity SCT110 77 73.4 89% 78 30.02 0.0
01 09:55 S 5 10.00 Thunderstorm in Vicinity BKN110 75.2 71.6 89% 75 30.02 0.0
01 09:35 S 6 10.00 Thunderstorm in Vicinity FEW110 75.2 71.6 89% 75 30.03 0.0
01 09:15 SW 6 10.00 Fair CLR 75.2 71.6 89% 75 30.03 0.0
01 08:55 SW 5 10.00 Fair CLR 75.2 71.6 89% 75 30.04 0.0
01 08:35 S 5 10.00 Thunderstorm in Vicinity FEW110 75.2 71.6 89% 75 30.03 0.0
01 08:15 Calm 10.00 Mostly Cloudy BKN110 75.2 71.6 89% 75 30.03 0.0
01 07:55 SW 5 10.00 Mostly Cloudy BKN110 73.4 71.6 94% 30.02 0.0
01 07:35 SW 6 10.00 Partly Cloudy SCT110 73.4 69.8 89% 30.01 0.0
01 07:15 SW 6 10.00 Mostly Cloudy BKN110 75.2 69.8 83% 75 30 0.0
01 06:55 SW 5 10.00 A Few Clouds FEW110 75.2 69.8 83% 75 30 0.0
01 06:35 SW 8 10.00 Mostly Cloudy BKN110 75.2 69.8 83% 75 30 0.0
01 06:15 SW 7 10.00 Overcast OVC110 75.2 69.8 83% 75 30 0.0
01 05:55 SW 9 10.00 Overcast OVC110 75.2 69.8 83% 75 30 0.0
01 05:35 SW 7 10.00 Partly Cloudy SCT110 75.2 69.8 83% 75 30 0.0
01 05:15 SW 7 10.00 Fair CLR 75.2 69.8 83% 75 30 0.0
01 04:55 SW 6 10.00 Fair CLR 75.2 69.8 83% 75 29.99 0.0
01 04:35 SW 6 10.00 Fair CLR 75.2 69.8 83% 75 29.99 0.0
01 04:15 SW 7 10.00 Fair CLR 75.2 69.8 83% 75 29.98 0.0
01 03:55 SW 6 10.00 Fair CLR 75.2 69.8 83% 75 29.98 0.0
01 03:35 S 7 10.00 Fair CLR 75.2 69.8 83% 75 29.99 0.0
01 03:15 S 7 10.00 Fair CLR 77 71.6 83% 78 29.98 0.0
01 02:55 SW 10 10.00 Fair CLR 77 69.8 79% 79 29.98 0.0
01 02:35 SW 8 10.00 Fair CLR 77 71.6 83% 78 29.98 0.0
01 02:15 SW 9 10.00 Fair CLR 77 71.6 83% 78 29.98 0.0
01 01:55 S 7 10.00 Fair CLR 77 71.6 83% 78 29.99 0.0
01 01:35 S 7 G 13 10.00 Fair CLR 77 71.6 83% 78 29.99 0.0
01 01:15 S 7 G 13 10.00 Fair CLR 78.8 71.6 79% 82 29.99 0.0
01 00:55 S 10 G 17 10.00 Fair CLR 78.8 69.8 74% 81 29.99 0.0
01 00:35 S 8 10.00 Fair CLR 78.8 71.6 79% 82 29.99 0.0
01 00:15 SW 7 10.00 Fair CLR 78.8 71.6 79% 82 29.99 0.0
31 23:55 SW 6 10.00 Fair CLR 78.8 71.6 79% 82 29.99 0.0
31 23:35 SW 7 10.00 Fair CLR 78.8 71.6 79% 82 29.98 0.0
31 23:15 SW 10 10.00 Fair CLR 80.6 71.6 74% 85 29.98 0.0
31 22:55 SW 9 G 16 10.00 Partly Cloudy FEW047 FEW065 SCT075 80.6 71.6 74% 85 29.98 0.0
31 22:15 S 12 8.00 Thunderstorm Light Rain FEW036 SCT055 BKN120 80.6 71.6 74% 85 29.98 0.0
31 21:55 SW 9 10.00 Thunderstorm in Vicinity SCT110 80.6 71.6 74% 85 30 0.0
31 21:35 SW 7 G 14 10.00 Thunderstorm in Vicinity SCT110 82.4 71.6 70% 87 30.01 0.0
31 21:15 S 8 10.00 A Few Clouds FEW120 82.4 73.4 74% 88 29.99 0.0
31 20:55 S 6 10.00 A Few Clouds FEW120 80.6 73.4 79% 85 29.99 0.0
31 20:35 Calm 10.00 Partly Cloudy SCT110 82.4 75.2 79% 89 30 0.0
31 20:15 S 5 10.00 Overcast OVC110 84.2 73.4 70% 91 30 0.0
31 19:35 S 6 10.00 Fair CLR 84.2 73.4 70% 91 30 0.0
31 19:15 S 5 10.00 Fair CLR 86 73.4 66% 93 29.99 0.0
31 18:55 S 7 10.00 Fair CLR 86 73.4 66% 93 29.99 0.0
31 18:35 S 8 G 15 10.00 A Few Clouds FEW120 86 73.4 66% 93 29.98 0.0
31 18:15 S 10 G 17 10.00 Fair CLR 87.8 73.4 62% 96 29.98 0.0
31 17:55 S 9 G 17 10.00 Fair CLR 87.8 73.4 62% 96 29.98 0.0
31 17:35 S 13 10.00 Fair CLR 87.8 73.4 62% 96 29.98 0.0
31 17:15 S 10 10.00 Fair CLR 87.8 73.4 62% 96 29.99 0.0
31 16:55 S 10 G 17 10.00 Fair CLR 87.8 73.4 62% 96 29.98 0.0
31 16:35 S 10 G 20 10.00 Fair CLR 87.8 73.4 62% 96 29.99 0.0
31 16:15 S 14 10.00 Fair CLR 87.8 75.2 66% 98 29.99 0.0
31 15:55 S 10 G 18 10.00 Fair CLR 87.8 73.4 62% 96 29.99 0.0
31 15:35 S 10 G 17 10.00 Fair CLR 86 73.4 66% 93 30 0.0
31 15:15 S 10 G 20 8.00 Fair CLR 86 73.4 66% 93 30.01 0.0
31 14:55 SW 12 10.00 Fair CLR 86 71.6 62% 92 30.02 0.0
31 14:35 S 9 10.00 Fair CLR 82.4 73.4 74% 88 30.03 0.0
31 14:15 S 8 G 16 10.00 A Few Clouds FEW120 82.4 71.6 70% 87 30.03 0.0
31 13:55 S 7 10.00 Mostly Cloudy BKN120 82.4 71.6 70% 87 30.04 0.0 0.01
31 13:35 S 3 9.00 Partly Cloudy FEW070 FEW085 SCT120 78.8 71.6 79% 82 30.06 0.0
31 13:15 S 7 9.00 Mostly Cloudy BKN120 78.8 71.6 79% 82 30.07 0.0
31 12:55 Vrbl 3 10.00 Mostly Cloudy BKN120 78.8 71.6 79% 82 30.07 0.0
31 12:35 SW 5 G 12 10.00 Fair CLR 77 69.8 79% 79 30.07 0.0
31 12:15 S 6 10.00 Fair CLR 77 71.6 83% 78 30.07 0.0
31 11:55 S 5 10.00 Fair CLR 77 71.6 83% 78 30.07 0.0
31 11:35 SW 6 10.00 Fair CLR 75.2 69.8 83% 75 30.07 0.0
31 11:15 Vrbl 5 8.00 Light Rain CLR 73.4 69.8 89% 30.07 0.0
31 10:55 SW 7 10.00 A Few Clouds FEW120 75.2 69.8 83% 75 30.07 0.0
31 10:35 S 7 10.00 Fair CLR 75.2 69.8 83% 75 30.06 0.0
31 10:15 SW 8 10.00 Fair CLR 73.4 68 83% 30.06 0.0
31 09:55 S 5 10.00 Fair CLR 73.4 68 83% 30.06 0.0
31 09:35 S 6 10.00 Fair CLR 73.4 68 83% 30.06 0.0
31 09:15 S 5 10.00 Fair CLR 73.4 68 83% 30.06 0.0
31 08:55 S 6 10.00 Fair CLR 73.4 68 83% 30.05 0.0
31 08:35 S 5 10.00 Fair CLR 73.4 68 83% 30.04 0.0
31 08:15 S 6 10.00 Fair CLR 73.4 68 83% 30.04 0.0
31 07:55 S 6 10.00 Fair CLR 73.4 68 83% 30.03 0.0
31 07:35 S 7 10.00 Fair CLR 71.6 68 88% 30.03 0.0
31 07:15 S 7 10.00 Fair CLR 71.6 68 88% 30.02 0.0
31 06:55 S 7 10.00 Fair CLR 71.6 68 88% 30.02 0.0
31 06:35 S 7 10.00 Fair CLR 71.6 68 88% 30.03 0.0
31 06:15 S 6 10.00 Fair CLR 71.6 68 88% 30.02 0.0
31 05:55 Calm 10.00 Fair CLR 71.6 69.8 94% 30.03 0.0
31 05:35 Calm 10.00 Fair CLR 71.6 69.8 94% 30.03 0.0
31 05:15 Calm 10.00 Fair CLR 73.4 69.8 89% 30.03 0.0
31 04:55 S 6 10.00 Fair CLR 73.4 69.8 89% 30.02 0.0
31 04:35 Vrbl 3 10.00 A Few Clouds FEW055 73.4 69.8 89% 30.02 0.0
31 04:15 S 3 10.00 Partly Cloudy FEW050 SCT060 71.6 69.8 94% 30.02 0.0
31 03:55 SE 7 10.00 Mostly Cloudy BKN060 71.6 71.6 100% 30.02 0.0
31 03:35 SE 5 10.00 Overcast OVC060 71.6 71.6 100% 30.02 0.0
31 03:15 Calm 9.00 Overcast OVC060 71.6 69.8 94% 30.03 0.0
31 02:55 SE 5 10.00 Overcast OVC060 73.4 71.6 94% 30.03 0.0
31 02:35 SE 5 10.00 Overcast BKN060 OVC110 73.4 71.6 94% 30.03 0.0
31 02:15 E 3 10.00 Overcast FEW044 SCT070 OVC100 71.6 71.6 100% 30.04 0.0
Date Time (edt) Wind (mph) Vis. (mi.) Weather Sky Cond. Air Dwpt Max. Min. Relative Humidity Wind Chill (°F) Heat Index (°F) altimeter (in) sea level (mb) 1 hr 3 hr 6 hr
6 hour
Temperature (ºF) Pressure Precipitation (in)